sensor_id;sensor_type;location;lat;lon;timestamp;P1;durP1;ratioP1;P2;durP2;ratioP2
68993;SDS011;56054;50.968;5.816;2022-08-25T00:40:02;6.82;;;3.47;;
68993;SDS011;56054;50.968;5.816;2022-08-25T00:43:11;8.10;;;2.88;;
68993;SDS011;56054;50.968;5.816;2022-08-25T00:46:22;9.25;;;3.20;;
68993;SDS011;56054;50.968;5.816;2022-08-25T00:49:48;6.18;;;2.88;;
68993;SDS011;56054;50.968;5.816;2022-08-25T00:53:00;12.82;;;3.13;;
68993;SDS011;56054;50.968;5.816;2022-08-25T00:56:10;7.75;;;3.60;;
68993;SDS011;56054;50.968;5.816;2022-08-25T00:59:19;6.65;;;3.03;;
68993;SDS011;56054;50.968;5.816;2022-08-25T01:02:27;7.35;;;3.63;;
68993;SDS011;56054;50.968;5.816;2022-08-25T01:05:34;7.47;;;3.53;;
68993;SDS011;56054;50.968;5.816;2022-08-25T01:08:42;7.30;;;4.15;;
68993;SDS011;56054;50.968;5.816;2022-08-25T01:11:51;5.20;;;3.15;;
68993;SDS011;56054;50.968;5.816;2022-08-25T01:14:59;5.32;;;3.22;;
68993;SDS011;56054;50.968;5.816;2022-08-25T01:18:07;9.10;;;3.25;;
68993;SDS011;56054;50.968;5.816;2022-08-25T01:21:15;7.55;;;3.10;;
68993;SDS011;56054;50.968;5.816;2022-08-25T01:27:41;9.77;;;3.65;;
68993;SDS011;56054;50.968;5.816;2022-08-25T01:30:48;6.55;;;3.30;;
68993;SDS011;56054;50.968;5.816;2022-08-25T01:33:55;5.47;;;3.95;;
68993;SDS011;56054;50.968;5.816;2022-08-25T01:37:03;5.13;;;3.08;;
68993;SDS011;56054;50.968;5.816;2022-08-25T01:40:11;6.43;;;3.85;;
68993;SDS011;56054;50.968;5.816;2022-08-25T01:43:29;9.93;;;3.28;;
68993;SDS011;56054;50.968;5.816;2022-08-25T01:46:41;8.68;;;3.33;;
68993;SDS011;56054;50.968;5.816;2022-08-25T01:49:48;8.82;;;3.45;;
68993;SDS011;56054;50.968;5.816;2022-08-25T01:56:27;12.77;;;3.83;;
68993;SDS011;56054;50.968;5.816;2022-08-25T01:59:34;7.10;;;3.67;;
68993;SDS011;56054;50.968;5.816;2022-08-25T02:02:41;5.80;;;3.20;;
68993;SDS011;56054;50.968;5.816;2022-08-25T02:05:49;8.77;;;3.50;;
68993;SDS011;56054;50.968;5.816;2022-08-25T02:08:59;4.70;;;3.08;;
68993;SDS011;56054;50.968;5.816;2022-08-25T02:12:09;4.50;;;2.97;;
68993;SDS011;56054;50.968;5.816;2022-08-25T02:15:15;9.30;;;3.15;;
68993;SDS011;56054;50.968;5.816;2022-08-25T02:18:23;3.90;;;2.80;;
68993;SDS011;56054;50.968;5.816;2022-08-25T02:21:30;6.35;;;3.58;;
68993;SDS011;56054;50.968;5.816;2022-08-25T02:24:36;7.82;;;2.92;;
68993;SDS011;56054;50.968;5.816;2022-08-25T02:27:44;8.20;;;2.92;;
68993;SDS011;56054;50.968;5.816;2022-08-25T02:30:51;7.28;;;3.33;;
68993;SDS011;56054;50.968;5.816;2022-08-25T02:33:58;9.52;;;3.40;;
68993;SDS011;56054;50.968;5.816;2022-08-25T02:37:04;3.97;;;3.08;;
68993;SDS011;56054;50.968;5.816;2022-08-25T02:40:12;5.80;;;3.00;;
68993;SDS011;56054;50.968;5.816;2022-08-25T02:43:18;7.53;;;2.88;;
68993;SDS011;56054;50.968;5.816;2022-08-25T02:46:25;6.20;;;3.20;;
68993;SDS011;56054;50.968;5.816;2022-08-25T02:49:34;4.80;;;2.80;;
68993;SDS011;56054;50.968;5.816;2022-08-25T02:52:40;9.77;;;2.85;;
68993;SDS011;56054;50.968;5.816;2022-08-25T02:55:48;6.28;;;3.00;;
68993;SDS011;56054;50.968;5.816;2022-08-25T02:58:55;4.50;;;2.65;;
68993;SDS011;56054;50.968;5.816;2022-08-25T03:02:02;9.25;;;3.40;;
68993;SDS011;56054;50.968;5.816;2022-08-25T03:05:10;8.98;;;3.20;;
68993;SDS011;56054;50.968;5.816;2022-08-25T03:08:18;4.80;;;2.95;;
68993;SDS011;56054;50.968;5.816;2022-08-25T03:11:24;4.45;;;2.42;;
68993;SDS011;56054;50.968;5.816;2022-08-25T03:14:31;6.95;;;3.28;;
68993;SDS011;56054;50.968;5.816;2022-08-25T03:17:39;4.43;;;2.63;;
68993;SDS011;56054;50.968;5.816;2022-08-25T03:20:46;6.72;;;3.13;;
68993;SDS011;56054;50.968;5.816;2022-08-25T03:23:53;7.25;;;3.03;;
68993;SDS011;56054;50.968;5.816;2022-08-25T03:27:00;7.72;;;3.00;;
68993;SDS011;56054;50.968;5.816;2022-08-25T03:30:08;10.18;;;3.42;;
68993;SDS011;56054;50.968;5.816;2022-08-25T03:33:16;8.32;;;3.45;;
68993;SDS011;56054;50.968;5.816;2022-08-25T03:36:27;8.18;;;3.45;;
68993;SDS011;56054;50.968;5.816;2022-08-25T03:39:35;4.95;;;3.53;;
68993;SDS011;56054;50.968;5.816;2022-08-25T03:42:42;6.60;;;3.47;;
68993;SDS011;56054;50.968;5.816;2022-08-25T03:45:51;6.82;;;3.20;;
68993;SDS011;56054;50.968;5.816;2022-08-25T03:48:59;5.55;;;2.92;;
68993;SDS011;56054;50.968;5.816;2022-08-25T03:52:06;6.10;;;3.28;;
68993;SDS011;56054;50.968;5.816;2022-08-25T03:55:14;6.25;;;3.10;;
68993;SDS011;56054;50.968;5.816;2022-08-25T03:58:21;6.35;;;3.60;;
68993;SDS011;56054;50.968;5.816;2022-08-25T04:01:28;5.88;;;2.95;;
68993;SDS011;56054;50.968;5.816;2022-08-25T04:04:36;6.63;;;2.88;;
68993;SDS011;56054;50.968;5.816;2022-08-25T04:07:43;6.32;;;3.00;;
68993;SDS011;56054;50.968;5.816;2022-08-25T04:10:49;5.22;;;3.03;;
68993;SDS011;56054;50.968;5.816;2022-08-25T04:13:57;12.95;;;3.28;;
68993;SDS011;56054;50.968;5.816;2022-08-25T04:17:05;4.78;;;2.85;;
68993;SDS011;56054;50.968;5.816;2022-08-25T04:20:12;6.88;;;3.00;;
68993;SDS011;56054;50.968;5.816;2022-08-25T04:23:19;6.85;;;3.15;;
68993;SDS011;56054;50.968;5.816;2022-08-25T04:26:30;8.55;;;3.65;;
68993;SDS011;56054;50.968;5.816;2022-08-25T04:29:41;6.75;;;3.30;;
68993;SDS011;56054;50.968;5.816;2022-08-25T04:32:48;9.07;;;3.33;;
68993;SDS011;56054;50.968;5.816;2022-08-25T04:35:54;6.78;;;3.10;;
68993;SDS011;56054;50.968;5.816;2022-08-25T04:39:01;9.63;;;3.30;;
68993;SDS011;56054;50.968;5.816;2022-08-25T04:42:09;7.82;;;3.35;;
68993;SDS011;56054;50.968;5.816;2022-08-25T04:45:16;6.72;;;3.33;;
68993;SDS011;56054;50.968;5.816;2022-08-25T04:48:23;7.22;;;3.33;;
68993;SDS011;56054;50.968;5.816;2022-08-25T04:51:32;8.20;;;3.42;;
68993;SDS011;56054;50.968;5.816;2022-08-25T04:54:42;5.53;;;3.08;;
68993;SDS011;56054;50.968;5.816;2022-08-25T04:57:52;4.25;;;2.60;;
68993;SDS011;56054;50.968;5.816;2022-08-25T05:01:09;5.30;;;3.40;;
68993;SDS011;56054;50.968;5.816;2022-08-25T05:04:22;7.57;;;3.22;;
68993;SDS011;56054;50.968;5.816;2022-08-25T05:07:29;7.25;;;3.22;;
68993;SDS011;56054;50.968;5.816;2022-08-25T05:10:40;12.00;;;3.65;;
68993;SDS011;56054;50.968;5.816;2022-08-25T05:13:53;6.10;;;3.63;;
68993;SDS011;56054;50.968;5.816;2022-08-25T05:17:07;9.48;;;3.08;;
68993;SDS011;56054;50.968;5.816;2022-08-25T05:20:14;5.35;;;3.10;;
68993;SDS011;56054;50.968;5.816;2022-08-25T05:23:22;4.95;;;3.30;;
68993;SDS011;56054;50.968;5.816;2022-08-25T05:26:31;8.23;;;3.92;;
68993;SDS011;56054;50.968;5.816;2022-08-25T05:29:40;7.75;;;3.88;;
68993;SDS011;56054;50.968;5.816;2022-08-25T05:32:47;5.45;;;3.45;;
68993;SDS011;56054;50.968;5.816;2022-08-25T05:35:54;8.93;;;3.63;;
68993;SDS011;56054;50.968;5.816;2022-08-25T05:39:01;8.82;;;3.80;;
68993;SDS011;56054;50.968;5.816;2022-08-25T05:42:09;6.28;;;3.35;;
68993;SDS011;56054;50.968;5.816;2022-08-25T05:45:16;5.88;;;3.50;;
68993;SDS011;56054;50.968;5.816;2022-08-25T05:48:28;8.40;;;3.50;;
68993;SDS011;56054;50.968;5.816;2022-08-25T05:51:35;8.20;;;3.97;;
68993;SDS011;56054;50.968;5.816;2022-08-25T05:54:42;4.72;;;3.28;;
68993;SDS011;56054;50.968;5.816;2022-08-25T05:57:49;7.65;;;4.10;;
68993;SDS011;56054;50.968;5.816;2022-08-25T06:00:56;9.15;;;4.43;;
68993;SDS011;56054;50.968;5.816;2022-08-25T06:04:05;7.47;;;3.85;;
68993;SDS011;56054;50.968;5.816;2022-08-25T06:07:12;4.90;;;3.22;;
68993;SDS011;56054;50.968;5.816;2022-08-25T06:10:19;6.15;;;3.63;;
68993;SDS011;56054;50.968;5.816;2022-08-25T06:13:26;8.20;;;3.65;;
68993;SDS011;56054;50.968;5.816;2022-08-25T06:16:33;6.25;;;3.47;;
68993;SDS011;56054;50.968;5.816;2022-08-25T06:19:40;8.25;;;3.33;;
68993;SDS011;56054;50.968;5.816;2022-08-25T06:22:47;8.52;;;3.58;;
68993;SDS011;56054;50.968;5.816;2022-08-25T06:25:55;9.25;;;4.05;;
68993;SDS011;56054;50.968;5.816;2022-08-25T06:29:14;7.47;;;3.60;;
68993;SDS011;56054;50.968;5.816;2022-08-25T06:32:21;8.50;;;3.30;;
68993;SDS011;56054;50.968;5.816;2022-08-25T06:35:28;6.00;;;3.38;;
68993;SDS011;56054;50.968;5.816;2022-08-25T06:38:38;8.35;;;3.42;;
68993;SDS011;56054;50.968;5.816;2022-08-25T06:41:45;5.35;;;3.30;;
68993;SDS011;56054;50.968;5.816;2022-08-25T06:45:02;5.65;;;3.13;;
68993;SDS011;56054;50.968;5.816;2022-08-25T06:48:34;8.95;;;2.90;;
68993;SDS011;56054;50.968;5.816;2022-08-25T06:52:13;4.80;;;2.80;;
68993;SDS011;56054;50.968;5.816;2022-08-25T06:55:22;5.10;;;2.88;;
68993;SDS011;56054;50.968;5.816;2022-08-25T06:58:33;9.57;;;2.78;;
68993;SDS011;56054;50.968;5.816;2022-08-25T07:01:40;6.97;;;2.75;;
68993;SDS011;56054;50.968;5.816;2022-08-25T07:04:47;10.23;;;3.00;;
68993;SDS011;56054;50.968;5.816;2022-08-25T07:07:57;3.80;;;2.53;;
68993;SDS011;56054;50.968;5.816;2022-08-25T07:11:05;5.22;;;2.80;;
68993;SDS011;56054;50.968;5.816;2022-08-25T07:14:21;10.98;;;2.80;;
68993;SDS011;56054;50.968;5.816;2022-08-25T07:17:29;13.05;;;3.20;;
68993;SDS011;56054;50.968;5.816;2022-08-25T07:20:36;5.60;;;2.40;;
68993;SDS011;56054;50.968;5.816;2022-08-25T07:23:54;6.78;;;2.55;;
68993;SDS011;56054;50.968;5.816;2022-08-25T07:27:02;6.07;;;2.90;;
68993;SDS011;56054;50.968;5.816;2022-08-25T07:30:18;13.45;;;2.33;;
68993;SDS011;56054;50.968;5.816;2022-08-25T07:33:25;12.35;;;2.65;;
68993;SDS011;56054;50.968;5.816;2022-08-25T07:36:47;4.47;;;2.20;;
68993;SDS011;56054;50.968;5.816;2022-08-25T07:39:54;7.55;;;2.60;;
68993;SDS011;56054;50.968;5.816;2022-08-25T07:43:02;10.93;;;2.50;;
68993;SDS011;56054;50.968;5.816;2022-08-25T07:46:12;8.88;;;2.80;;
68993;SDS011;56054;50.968;5.816;2022-08-25T07:49:19;15.00;;;3.08;;
68993;SDS011;56054;50.968;5.816;2022-08-25T07:52:27;5.88;;;2.33;;
68993;SDS011;56054;50.968;5.816;2022-08-25T07:55:34;6.78;;;2.45;;
68993;SDS011;56054;50.968;5.816;2022-08-25T07:58:47;10.40;;;2.75;;
68993;SDS011;56054;50.968;5.816;2022-08-25T08:01:55;7.47;;;2.92;;
68993;SDS011;56054;50.968;5.816;2022-08-25T08:05:02;5.63;;;2.45;;
68993;SDS011;56054;50.968;5.816;2022-08-25T08:08:09;7.90;;;2.78;;
68993;SDS011;56054;50.968;5.816;2022-08-25T08:11:17;9.43;;;2.33;;
68993;SDS011;56054;50.968;5.816;2022-08-25T08:14:27;6.85;;;2.60;;
68993;SDS011;56054;50.968;5.816;2022-08-25T08:17:43;8.57;;;2.90;;
68993;SDS011;56054;50.968;5.816;2022-08-25T08:20:51;8.90;;;3.15;;
68993;SDS011;56054;50.968;5.816;2022-08-25T08:23:59;8.40;;;2.45;;
68993;SDS011;56054;50.968;5.816;2022-08-25T08:27:32;4.18;;;2.08;;
68993;SDS011;56054;50.968;5.816;2022-08-25T08:30:40;6.20;;;2.10;;
68993;SDS011;56054;50.968;5.816;2022-08-25T08:33:53;11.25;;;2.08;;
68993;SDS011;56054;50.968;5.816;2022-08-25T08:37:07;16.45;;;2.72;;
68993;SDS011;56054;50.968;5.816;2022-08-25T08:40:15;5.30;;;2.13;;
68993;SDS011;56054;50.968;5.816;2022-08-25T08:43:25;23.45;;;2.45;;
68993;SDS011;56054;50.968;5.816;2022-08-25T08:46:39;9.48;;;2.17;;
68993;SDS011;56054;50.968;5.816;2022-08-25T08:50:10;5.95;;;1.70;;
68993;SDS011;56054;50.968;5.816;2022-08-25T08:53:26;4.70;;;2.00;;
68993;SDS011;56054;50.968;5.816;2022-08-25T08:56:47;3.60;;;1.95;;
68993;SDS011;56054;50.968;5.816;2022-08-25T08:59:59;4.90;;;1.95;;
68993;SDS011;56054;50.968;5.816;2022-08-25T09:03:22;9.45;;;1.98;;
68993;SDS011;56054;50.968;5.816;2022-08-25T09:06:57;5.18;;;1.90;;
68993;SDS011;56054;50.968;5.816;2022-08-25T09:10:17;9.50;;;2.00;;
68993;SDS011;56054;50.968;5.816;2022-08-25T09:13:47;3.83;;;2.03;;
68993;SDS011;56054;50.968;5.816;2022-08-25T09:17:20;13.88;;;2.30;;
68993;SDS011;56054;50.968;5.816;2022-08-25T09:20:53;7.78;;;2.15;;
68993;SDS011;56054;50.968;5.816;2022-08-25T09:32:19;7.93;;;2.28;;
68993;SDS011;56054;50.968;5.816;2022-08-25T09:36:12;6.13;;;2.22;;
68993;SDS011;56054;50.968;5.816;2022-08-25T09:39:23;14.52;;;2.13;;
68993;SDS011;56054;50.968;5.816;2022-08-25T09:42:45;6.60;;;1.83;;
68993;SDS011;56054;50.968;5.816;2022-08-25T09:53:19;12.65;;;2.53;;
68993;SDS011;56054;50.968;5.816;2022-08-25T09:56:28;9.55;;;2.35;;
68993;SDS011;56054;50.968;5.816;2022-08-25T09:59:38;6.50;;;2.58;;
68993;SDS011;56054;50.968;5.816;2022-08-25T10:02:59;6.50;;;2.25;;
68993;SDS011;56054;50.968;5.816;2022-08-25T10:06:20;5.13;;;1.80;;
68993;SDS011;56054;50.968;5.816;2022-08-25T10:09:38;6.63;;;2.15;;
68993;SDS011;56054;50.968;5.816;2022-08-25T10:12:48;7.20;;;2.10;;
68993;SDS011;56054;50.968;5.816;2022-08-25T10:16:02;3.25;;;1.98;;
68993;SDS011;56054;50.968;5.816;2022-08-25T10:19:25;3.67;;;1.75;;
68993;SDS011;56054;50.968;5.816;2022-08-25T10:22:36;3.10;;;1.95;;
68993;SDS011;56054;50.968;5.816;2022-08-25T10:25:45;7.82;;;2.10;;
68993;SDS011;56054;50.968;5.816;2022-08-25T10:29:01;3.97;;;2.30;;
68993;SDS011;56054;50.968;5.816;2022-08-25T10:35:56;6.72;;;2.00;;
68993;SDS011;56054;50.968;5.816;2022-08-25T10:39:05;10.68;;;2.30;;
68993;SDS011;56054;50.968;5.816;2022-08-25T10:42:20;4.78;;;1.92;;
68993;SDS011;56054;50.968;5.816;2022-08-25T10:49:46;14.30;;;2.10;;
68993;SDS011;56054;50.968;5.816;2022-08-25T10:56:05;7.93;;;1.77;;
68993;SDS011;56054;50.968;5.816;2022-08-25T11:00:14;5.10;;;2.70;;
68993;SDS011;56054;50.968;5.816;2022-08-25T11:04:00;3.67;;;1.70;;
68993;SDS011;56054;50.968;5.816;2022-08-25T11:07:00;14.98;;;2.30;;
68993;SDS011;56054;50.968;5.816;2022-08-25T11:13:41;8.30;;;1.63;;
68993;SDS011;56054;50.968;5.816;2022-08-25T11:17:12;3.97;;;1.73;;
68993;SDS011;56054;50.968;5.816;2022-08-25T11:24:25;3.35;;;1.45;;
68993;SDS011;56054;50.968;5.816;2022-08-25T11:27:46;7.00;;;1.52;;
68993;SDS011;56054;50.968;5.816;2022-08-25T11:31:13;8.40;;;3.50;;
68993;SDS011;56054;50.968;5.816;2022-08-25T11:34:30;7.90;;;2.50;;
68993;SDS011;56054;50.968;5.816;2022-08-25T11:51:58;4.05;;;1.83;;
68993;SDS011;56054;50.968;5.816;2022-08-25T11:55:12;4.78;;;1.77;;
68993;SDS011;56054;50.968;5.816;2022-08-25T12:05:09;5.07;;;1.52;;
68993;SDS011;56054;50.968;5.816;2022-08-25T12:15:54;7.28;;;1.80;;
68993;SDS011;56054;50.968;5.816;2022-08-25T12:25:43;1.55;;;1.23;;
68993;SDS011;56054;50.968;5.816;2022-08-25T12:36:24;2.60;;;1.10;;
68993;SDS011;56054;50.968;5.816;2022-08-25T12:39:35;2.35;;;1.05;;
68993;SDS011;56054;50.968;5.816;2022-08-25T12:42:59;3.35;;;1.20;;
68993;SDS011;56054;50.968;5.816;2022-08-25T12:49:33;3.90;;;1.42;;
68993;SDS011;56054;50.968;5.816;2022-08-25T12:52:40;2.05;;;1.15;;
68993;SDS011;56054;50.968;5.816;2022-08-25T12:55:58;7.65;;;3.25;;
68993;SDS011;56054;50.968;5.816;2022-08-25T12:59:16;5.35;;;1.58;;
68993;SDS011;56054;50.968;5.816;2022-08-25T13:13:04;2.50;;;1.30;;
68993;SDS011;56054;50.968;5.816;2022-08-25T13:16:54;4.47;;;1.02;;
68993;SDS011;56054;50.968;5.816;2022-08-25T13:20:17;4.65;;;1.40;;
68993;SDS011;56054;50.968;5.816;2022-08-25T13:24:18;3.25;;;1.23;;
68993;SDS011;56054;50.968;5.816;2022-08-25T13:27:38;6.65;;;1.23;;
68993;SDS011;56054;50.968;5.816;2022-08-25T13:34:30;7.97;;;1.70;;
68993;SDS011;56054;50.968;5.816;2022-08-25T13:37:49;4.72;;;1.35;;
68993;SDS011;56054;50.968;5.816;2022-08-25T13:41:01;3.17;;;1.40;;
68993;SDS011;56054;50.968;5.816;2022-08-25T13:44:18;4.78;;;1.70;;
68993;SDS011;56054;50.968;5.816;2022-08-25T13:47:31;6.25;;;1.08;;
68993;SDS011;56054;50.968;5.816;2022-08-25T13:50:42;4.32;;;1.50;;
68993;SDS011;56054;50.968;5.816;2022-08-25T13:53:50;4.85;;;1.40;;
68993;SDS011;56054;50.968;5.816;2022-08-25T13:57:43;4.30;;;1.65;;
68993;SDS011;56054;50.968;5.816;2022-08-25T14:01:10;7.03;;;1.20;;
68993;SDS011;56054;50.968;5.816;2022-08-25T14:04:22;3.95;;;1.50;;
68993;SDS011;56054;50.968;5.816;2022-08-25T14:07:34;4.07;;;1.30;;
68993;SDS011;56054;50.968;5.816;2022-08-25T14:10:45;9.98;;;1.40;;
68993;SDS011;56054;50.968;5.816;2022-08-25T14:14:08;5.07;;;1.30;;
68993;SDS011;56054;50.968;5.816;2022-08-25T14:17:17;3.40;;;1.20;;
68993;SDS011;56054;50.968;5.816;2022-08-25T14:20:26;4.95;;;1.50;;
68993;SDS011;56054;50.968;5.816;2022-08-25T14:23:40;5.22;;;1.30;;
68993;SDS011;56054;50.968;5.816;2022-08-25T14:26:48;1.48;;;1.20;;
68993;SDS011;56054;50.968;5.816;2022-08-25T14:29:56;2.95;;;1.23;;
68993;SDS011;56054;50.968;5.816;2022-08-25T14:33:07;4.50;;;1.30;;
68993;SDS011;56054;50.968;5.816;2022-08-25T14:36:15;4.25;;;1.30;;
68993;SDS011;56054;50.968;5.816;2022-08-25T14:39:22;2.75;;;1.05;;
68993;SDS011;56054;50.968;5.816;2022-08-25T14:42:29;5.43;;;1.25;;
68993;SDS011;56054;50.968;5.816;2022-08-25T14:45:40;3.83;;;1.20;;
68993;SDS011;56054;50.968;5.816;2022-08-25T14:48:50;3.63;;;1.25;;
68993;SDS011;56054;50.968;5.816;2022-08-25T14:52:11;2.53;;;1.27;;
68993;SDS011;56054;50.968;5.816;2022-08-25T14:55:21;2.25;;;1.20;;
68993;SDS011;56054;50.968;5.816;2022-08-25T14:58:30;4.03;;;1.30;;
68993;SDS011;56054;50.968;5.816;2022-08-25T15:01:39;3.97;;;1.23;;
68993;SDS011;56054;50.968;5.816;2022-08-25T15:04:51;6.53;;;1.30;;
68993;SDS011;56054;50.968;5.816;2022-08-25T15:08:02;3.88;;;1.58;;
68993;SDS011;56054;50.968;5.816;2022-08-25T15:11:09;5.47;;;1.65;;
68993;SDS011;56054;50.968;5.816;2022-08-25T15:14:17;2.85;;;1.13;;
68993;SDS011;56054;50.968;5.816;2022-08-25T15:17:25;3.90;;;1.27;;
68993;SDS011;56054;50.968;5.816;2022-08-25T15:20:42;2.20;;;1.15;;
68993;SDS011;56054;50.968;5.816;2022-08-25T15:24:09;4.53;;;1.27;;
68993;SDS011;56054;50.968;5.816;2022-08-25T15:30:49;5.28;;;1.65;;
68993;SDS011;56054;50.968;5.816;2022-08-25T15:33:56;2.53;;;1.52;;
68993;SDS011;56054;50.968;5.816;2022-08-25T15:37:10;6.07;;;1.20;;
68993;SDS011;56054;50.968;5.816;2022-08-25T15:40:30;3.75;;;1.75;;
68993;SDS011;56054;50.968;5.816;2022-08-25T15:43:37;4.22;;;2.08;;
68993;SDS011;56054;50.968;5.816;2022-08-25T15:46:44;7.63;;;1.48;;
68993;SDS011;56054;50.968;5.816;2022-08-25T15:49:52;5.38;;;1.77;;
68993;SDS011;56054;50.968;5.816;2022-08-25T15:53:13;5.57;;;1.65;;
68993;SDS011;56054;50.968;5.816;2022-08-25T15:56:20;4.30;;;1.70;;
68993;SDS011;56054;50.968;5.816;2022-08-25T15:59:28;4.10;;;1.42;;
68993;SDS011;56054;50.968;5.816;2022-08-25T16:02:35;6.60;;;1.50;;
68993;SDS011;56054;50.968;5.816;2022-08-25T16:05:42;3.05;;;1.80;;
68993;SDS011;56054;50.968;5.816;2022-08-25T16:08:52;5.53;;;1.48;;
68993;SDS011;56054;50.968;5.816;2022-08-25T16:12:01;4.05;;;1.50;;
68993;SDS011;56054;50.968;5.816;2022-08-25T16:15:14;4.38;;;1.42;;
68993;SDS011;56054;50.968;5.816;2022-08-25T16:18:21;6.60;;;1.60;;
68993;SDS011;56054;50.968;5.816;2022-08-25T16:21:30;3.58;;;1.45;;
68993;SDS011;56054;50.968;5.816;2022-08-25T16:24:42;2.85;;;1.50;;
68993;SDS011;56054;50.968;5.816;2022-08-25T16:27:53;3.00;;;1.38;;
68993;SDS011;56054;50.968;5.816;2022-08-25T16:31:00;6.00;;;1.50;;
68993;SDS011;56054;50.968;5.816;2022-08-25T16:34:08;7.18;;;2.25;;
68993;SDS011;56054;50.968;5.816;2022-08-25T16:37:23;4.63;;;1.45;;
68993;SDS011;56054;50.968;5.816;2022-08-25T16:40:30;4.53;;;1.73;;
68993;SDS011;56054;50.968;5.816;2022-08-25T16:43:37;3.65;;;1.50;;
68993;SDS011;56054;50.968;5.816;2022-08-25T16:46:45;6.93;;;1.52;;
68993;SDS011;56054;50.968;5.816;2022-08-25T16:49:53;4.53;;;1.75;;
68993;SDS011;56054;50.968;5.816;2022-08-25T16:53:01;3.22;;;1.42;;
68993;SDS011;56054;50.968;5.816;2022-08-25T16:56:13;3.97;;;1.20;;
68993;SDS011;56054;50.968;5.816;2022-08-25T16:59:20;2.83;;;1.52;;
68993;SDS011;56054;50.968;5.816;2022-08-25T17:02:28;5.47;;;1.50;;
68993;SDS011;56054;50.968;5.816;2022-08-25T17:05:39;3.10;;;1.40;;
68993;SDS011;56054;50.968;5.816;2022-08-25T17:08:47;2.65;;;1.40;;
68993;SDS011;56054;50.968;5.816;2022-08-25T17:11:54;4.65;;;1.00;;
68993;SDS011;56054;50.968;5.816;2022-08-25T17:15:01;4.57;;;1.10;;
68993;SDS011;56054;50.968;5.816;2022-08-25T17:18:08;3.03;;;1.15;;
68993;SDS011;56054;50.968;5.816;2022-08-25T17:21:17;1.90;;;1.40;;
68993;SDS011;56054;50.968;5.816;2022-08-25T17:24:30;2.65;;;1.52;;
68993;SDS011;56054;50.968;5.816;2022-08-25T17:27:37;6.60;;;1.50;;
68993;SDS011;56054;50.968;5.816;2022-08-25T17:30:44;8.57;;;1.55;;
68993;SDS011;56054;50.968;5.816;2022-08-25T17:33:51;2.47;;;1.50;;
68993;SDS011;56054;50.968;5.816;2022-08-25T17:36:58;4.60;;;1.42;;
68993;SDS011;56054;50.968;5.816;2022-08-25T17:40:06;2.83;;;1.52;;
68993;SDS011;56054;50.968;5.816;2022-08-25T17:43:19;3.17;;;1.45;;
68993;SDS011;56054;50.968;5.816;2022-08-25T17:46:27;3.90;;;1.60;;
68993;SDS011;56054;50.968;5.816;2022-08-25T17:49:34;8.20;;;1.55;;
68993;SDS011;56054;50.968;5.816;2022-08-25T17:52:50;3.13;;;1.58;;
68993;SDS011;56054;50.968;5.816;2022-08-25T17:56:01;3.60;;;1.58;;
68993;SDS011;56054;50.968;5.816;2022-08-25T17:59:20;4.75;;;1.58;;
68993;SDS011;56054;50.968;5.816;2022-08-25T18:02:27;4.85;;;1.75;;
68993;SDS011;56054;50.968;5.816;2022-08-25T18:05:35;3.40;;;1.50;;
68993;SDS011;56054;50.968;5.816;2022-08-25T18:08:47;6.63;;;1.40;;
68993;SDS011;56054;50.968;5.816;2022-08-25T18:11:54;3.20;;;1.60;;
68993;SDS011;56054;50.968;5.816;2022-08-25T18:15:03;6.15;;;1.48;;
68993;SDS011;56054;50.968;5.816;2022-08-25T18:18:11;4.43;;;1.33;;
68993;SDS011;56054;50.968;5.816;2022-08-25T18:21:18;7.53;;;1.58;;
68993;SDS011;56054;50.968;5.816;2022-08-25T18:24:26;4.22;;;1.77;;
68993;SDS011;56054;50.968;5.816;2022-08-25T18:27:33;2.58;;;1.60;;
68993;SDS011;56054;50.968;5.816;2022-08-25T18:30:49;6.22;;;1.65;;
68993;SDS011;56054;50.968;5.816;2022-08-25T18:33:56;4.13;;;2.15;;
68993;SDS011;56054;50.968;5.816;2022-08-25T18:37:03;5.47;;;2.00;;
68993;SDS011;56054;50.968;5.816;2022-08-25T18:40:18;3.30;;;1.40;;
68993;SDS011;56054;50.968;5.816;2022-08-25T18:43:28;4.43;;;1.70;;
68993;SDS011;56054;50.968;5.816;2022-08-25T18:46:53;3.13;;;1.83;;
68993;SDS011;56054;50.968;5.816;2022-08-25T18:50:19;3.72;;;2.08;;
68993;SDS011;56054;50.968;5.816;2022-08-25T18:53:32;6.97;;;2.28;;
68993;SDS011;56054;50.968;5.816;2022-08-25T18:56:39;5.70;;;2.40;;
68993;SDS011;56054;50.968;5.816;2022-08-25T18:59:57;6.07;;;3.20;;
68993;SDS011;56054;50.968;5.816;2022-08-25T19:03:04;3.55;;;2.42;;
68993;SDS011;56054;50.968;5.816;2022-08-25T19:06:11;5.53;;;2.63;;
68993;SDS011;56054;50.968;5.816;2022-08-25T19:09:24;7.10;;;2.50;;
68993;SDS011;56054;50.968;5.816;2022-08-25T19:12:32;3.95;;;2.20;;
68993;SDS011;56054;50.968;5.816;2022-08-25T19:15:39;2.88;;;1.90;;
68993;SDS011;56054;50.968;5.816;2022-08-25T19:18:47;3.95;;;1.98;;
68993;SDS011;56054;50.968;5.816;2022-08-25T19:21:56;4.13;;;1.85;;
68993;SDS011;56054;50.968;5.816;2022-08-25T19:25:08;5.65;;;1.85;;
68993;SDS011;56054;50.968;5.816;2022-08-25T19:28:21;5.50;;;2.28;;
68993;SDS011;56054;50.968;5.816;2022-08-25T19:31:29;2.15;;;1.60;;
68993;SDS011;56054;50.968;5.816;2022-08-25T19:34:38;5.65;;;2.00;;
68993;SDS011;56054;50.968;5.816;2022-08-25T19:37:50;3.33;;;1.83;;
68993;SDS011;56054;50.968;5.816;2022-08-25T19:41:02;8.25;;;1.75;;
68993;SDS011;56054;50.968;5.816;2022-08-25T19:44:10;2.58;;;1.55;;
68993;SDS011;56054;50.968;5.816;2022-08-25T19:47:20;2.58;;;1.80;;
68993;SDS011;56054;50.968;5.816;2022-08-25T19:50:27;4.38;;;1.90;;
68993;SDS011;56054;50.968;5.816;2022-08-25T19:53:34;5.90;;;2.22;;
68993;SDS011;56054;50.968;5.816;2022-08-25T19:56:41;4.90;;;2.00;;
68993;SDS011;56054;50.968;5.816;2022-08-25T19:59:54;4.45;;;1.98;;
68993;SDS011;56054;50.968;5.816;2022-08-25T20:03:22;5.20;;;2.20;;
68993;SDS011;56054;50.968;5.816;2022-08-25T20:06:30;4.32;;;2.20;;
68993;SDS011;56054;50.968;5.816;2022-08-25T20:10:04;4.07;;;2.20;;
68993;SDS011;56054;50.968;5.816;2022-08-25T20:13:12;6.13;;;2.70;;
68993;SDS011;56054;50.968;5.816;2022-08-25T20:16:23;5.72;;;3.10;;
68993;SDS011;56054;50.968;5.816;2022-08-25T20:19:50;5.78;;;3.20;;
68993;SDS011;56054;50.968;5.816;2022-08-25T20:22:59;7.82;;;1.85;;
68993;SDS011;56054;50.968;5.816;2022-08-25T20:26:07;7.45;;;2.88;;
68993;SDS011;56054;50.968;5.816;2022-08-25T20:29:17;10.32;;;3.10;;
68993;SDS011;56054;50.968;5.816;2022-08-25T20:32:24;7.05;;;3.28;;
68993;SDS011;56054;50.968;5.816;2022-08-25T20:35:34;18.83;;;4.78;;
68993;SDS011;56054;50.968;5.816;2022-08-25T20:38:41;9.45;;;4.82;;
68993;SDS011;56054;50.968;5.816;2022-08-25T20:41:48;12.38;;;7.28;;
68993;SDS011;56054;50.968;5.816;2022-08-25T20:45:00;13.85;;;8.70;;
68993;SDS011;56054;50.968;5.816;2022-08-25T20:48:13;13.80;;;8.13;;
68993;SDS011;56054;50.968;5.816;2022-08-25T20:51:20;19.45;;;8.43;;
68993;SDS011;56054;50.968;5.816;2022-08-25T20:54:28;16.58;;;7.53;;
68993;SDS011;56054;50.968;5.816;2022-08-25T20:57:37;13.73;;;8.38;;
68993;SDS011;56054;50.968;5.816;2022-08-25T21:00:52;14.63;;;9.15;;
68993;SDS011;56054;50.968;5.816;2022-08-25T21:03:59;16.98;;;9.15;;
68993;SDS011;56054;50.968;5.816;2022-08-25T21:07:32;17.55;;;11.40;;
68993;SDS011;56054;50.968;5.816;2022-08-25T21:10:39;19.42;;;13.70;;
68993;SDS011;56054;50.968;5.816;2022-08-25T21:13:46;22.20;;;13.85;;
68993;SDS011;56054;50.968;5.816;2022-08-25T21:16:53;29.52;;;16.58;;
68993;SDS011;56054;50.968;5.816;2022-08-25T21:20:14;24.35;;;17.30;;
68993;SDS011;56054;50.968;5.816;2022-08-25T21:23:37;26.73;;;19.80;;
68993;SDS011;56054;50.968;5.816;2022-08-25T21:26:53;29.10;;;20.23;;
68993;SDS011;56054;50.968;5.816;2022-08-25T21:30:12;29.55;;;20.60;;
68993;SDS011;56054;50.968;5.816;2022-08-25T21:33:20;32.72;;;23.17;;
68993;SDS011;56054;50.968;5.816;2022-08-25T21:36:28;33.28;;;25.60;;